Stations météo

réclame
Mon MeteoGroup
Stabroek, Belgique (6438): Température de l'air & dewpoint: 15.07.2019 19:00:00 - 21.07.2019 19:00:00 (CEST)Stabroek, Belgique (6438): Vitesse du vent & gusts: 15.07.2019 19:00:00 - 21.07.2019 19:00:00 (CEST)Stabroek, Belgique (6438): Direction du vent: 15.07.2019 19:00:00 - 21.07.2019 19:00:00 (CEST)Stabroek, Belgique (6438): reduced air pressure: 15.07.2019 19:00:00 - 21.07.2019 19:00:00 (CEST)Stabroek, Belgique (6438): Ensoleillement: 15.07.2019 19:00:00 - 21.07.2019 19:00:00 (CEST)Stabroek, Belgique (6438): Quantités de précipitations: 15.07.2019 19:00:00 - 21.07.2019 19:00:00 (CEST)
Date & Time tt [°C] td [°C] ff [km/h] ff [knt] fx [km/h] fx [knt] dd ppp [hPa] sd [min] rr [mm]
21.07.2019 19:00:00 22,0 13,5 9 5 21 11 NNW 1022,7 60 0,0
21.07.2019 18:00:00 22,4 13,5 11 6 28 15 NNW 1022,8 56 0,0
21.07.2019 17:00:00 23,6 13,4 13 7 26 14 WNW 1022,7 60 0,0
21.07.2019 16:00:00 23,1 13,5 14 8 26 14 WNW 1022,8 58 0,0
21.07.2019 15:00:00 22,9 13,9 14 7 25 13 WNW 1022,5 49 0,0
21.07.2019 14:00:00 22,3 14,2 14 8 22 12 WNW 1022,3 25 0,0
21.07.2019 13:00:00 22,0 14,6 10 5 19 10 W 1021,9 37 0,0
21.07.2019 12:00:00 21,1 14,9 13 7 22 12 W 1021,5 33 0,0
21.07.2019 11:00:00 20,7 15,9 12 6 19 10 W 1021,1 28 0,0
21.07.2019 10:00:00 19,8 16,3 5 3 13 7 WSW 1020,5 60 0,0
21.07.2019 09:00:00 17,9 16,0 8 4 14 8 WSW 1020,0 3 0,0
21.07.2019 08:00:00 16,9 15,7 7 4 16 8 SW 1019,4 0 0,0
21.07.2019 07:00:00 16,1 15,3 9 5 17 9 SW 1018,7 0 0,0
21.07.2019 06:00:00 16,2 15,1 11 6 21 11 SW 1017,9 0 0,0
21.07.2019 05:00:00 16,4 15,0 11 6 22 12 SW 1017,2 0 0,0
21.07.2019 04:00:00 16,8 14,9 12 6 23 13 WSW 1016,8 0 0,0
21.07.2019 03:00:00 17,0 14,3 15 8 29 16 WSW 1016,4 0 0,0
21.07.2019 02:00:00 17,9 14,2 18 10 29 16 SW 1015,9 0 0,0
21.07.2019 01:00:00 18,3 14,1 14 8 31 17 WSW 1015,7 0 0,0
21.07.2019 00:00:00 18,9 14,0 16 9 33 18 SW 1015,1 0 0,0
20.07.2019 23:00:00 19,6 14,1 16 9 35 19 WSW 1014,5 0 0,0
20.07.2019 22:00:00 21,1 14,5 23 12 37 20 WSW 1013,7 28 0,0
20.07.2019 21:00:00 22,1 14,4 22 12 42 23 WSW 1012,8 40 0,0
20.07.2019 20:00:00 23,6 14,1 29 16 47 26 WSW 1011,9 54 0,0
20.07.2019 19:00:00 22,5 17,9 17 9 29 16 WNW 1011,3 2 0,0
20.07.2019 18:00:00 23,1 18,2 20 11 42 23 WNW 1011,0 19 0,0
20.07.2019 17:00:00 24,9 17,1 29 16 45 24 SSW 1010,4 50 0,0
20.07.2019 16:00:00 23,5 19,3 13 7 20 11 SW 1010,3 10 1,2
20.07.2019 15:00:00 23,0 17,4 14 7 27 14 S 1010,3 0 0,1
20.07.2019 14:00:00 24,3 16,8 18 10 31 17 SSW 1010,3 36 0,0
20.07.2019 13:00:00 22,5 16,9 14 7 23 13 SSE 1010,2 30 0,0
20.07.2019 12:00:00 20,9 16,8 11 6 19 10 SE 1010,2 20 0,0
20.07.2019 11:00:00 19,6 17,1 4 2 8 4 E 1010,6 0 0,6
20.07.2019 10:00:00 19,2 16,0 4 2 29 16 N 1010,1 0 0,2
20.07.2019 09:00:00 19,7 15,2 13 7 52 28 W 1010,7 2 0,1
20.07.2019 08:00:00 21,5 14,8 18 10 32 17 S 1009,3 8 0,0
20.07.2019 07:00:00 18,8 15,1 10 5 17 9 SE 1009,5 0 0,0
20.07.2019 06:00:00 18,5 14,8 9 5 14 8 ESE 1009,6 0 0,0
20.07.2019 05:00:00 18,7 14,9 10 5 14 8 ESE 1009,9 0 0,0
20.07.2019 04:00:00 18,5 15,0 10 5 16 9 SE 1010,3 0 0,0
20.07.2019 03:00:00 18,9 14,9 8 4 13 7 ESE 1010,9 0 0,0
20.07.2019 02:00:00 19,5 14,8 7 4 15 8 ESE 1011,3 0 0,0
20.07.2019 01:00:00 19,2 15,0 8 5 11 6 ESE 1011,9 0 0,0
20.07.2019 00:00:00 18,6 15,4 5 3 8 4 E 1012,2 0 0,0
19.07.2019 23:00:00 19,9 15,5 4 2 8 5 NE 1012,7 0 0,0
19.07.2019 22:00:00 21,5 14,6 5 3 13 7 N 1012,9 0 0,0
19.07.2019 21:00:00 23,2 13,3 9 5 23 13 WNW 1013,1 13 0,0
19.07.2019 20:00:00 23,8 12,7 11 6 25 13 SW 1013,2 13 0,0
19.07.2019 19:00:00 23,6 12,3 13 7 27 15 S 1013,4 23 0,0
19.07.2019 18:00:00 23,8 12,4 19 11 31 17 SW 1013,7 49 0,0
19.07.2019 17:00:00 24,5 12,0 16 9 26 14 S 1013,9 60 0,0
19.07.2019 16:00:00 23,4 12,9 16 9 29 16 S 1014,1 40 0,0
19.07.2019 15:00:00 23,3 12,9 14 8 27 14 SW 1014,5 26 0,0
19.07.2019 14:00:00 22,6 13,7 18 10 35 19 S 1014,5 15 0,0
19.07.2019 13:00:00 21,9 14,3 13 7 23 13 SSW 1014,3 37 0,0
19.07.2019 12:00:00 22,0 14,7 11 6 21 11 SSW 1014,4 58 0,0
19.07.2019 11:00:00 20,6 15,3 13 7 20 11 S 1014,6 60 0,0
19.07.2019 10:00:00 19,2 15,5 10 6 18 10 S 1014,6 60 0,0
19.07.2019 09:00:00 17,6 14,8 10 5 14 8 S 1014,4 47 0,0
19.07.2019 08:00:00 16,2 14,0 11 6 16 8 S 1013,9 0 0,0
19.07.2019 07:00:00 15,9 13,9 8 4 15 8 SSW 1013,8 0 0,0
19.07.2019 06:00:00 15,9 13,7 11 6 17 9 SSW 1013,4 0 0,0
19.07.2019 05:00:00 16,9 13,5 13 7 24 13 WSW 1013,3 0 0,0
19.07.2019 04:00:00 16,8 13,8 11 6 19 11 SW 1013,5 0 0,0
19.07.2019 03:00:00 17,7 14,5 13 7 22 12 WSW 1013,3 0 0,0
19.07.2019 02:00:00 18,4 14,2 14 8 25 13 W 1013,2 0 0,0
19.07.2019 01:00:00 18,9 14,7 14 7 23 13 W 1013,0 0 0,0
19.07.2019 00:00:00 18,8 14,6 13 7 23 12 SW 1012,9 0 0,0
18.07.2019 23:00:00 19,1 14,5 14 8 26 14 SW 1012,7 0 0,0
18.07.2019 22:00:00 19,8 14,6 18 10 29 16 WSW 1012,6 0 0,0
18.07.2019 21:00:00 20,1 14,5 22 12 39 21 WSW 1012,2 0 0,0
18.07.2019 20:00:00 20,2 15,9 18 10 34 18 SW 1011,9 0 0,0
18.07.2019 19:00:00 20,1 15,4 21 12 37 20 SW 1012,1 0 0,0
18.07.2019 18:00:00 20,6 15,2 22 12 36 19 SW 1012,1 0 0,0
18.07.2019 17:00:00 22,4 14,4 16 9 28 15 SW 1011,6 11 0,0
18.07.2019 16:00:00 21,8 14,1 16 9 26 14 SW 1011,9 0 0,0
18.07.2019 15:00:00 21,8 14,5 15 8 21 11 S 1011,7 4 0,0
18.07.2019 14:00:00 21,7 13,8 14 8 27 15 W 1011,9 9 0,0
18.07.2019 13:00:00 20,8 14,1 17 9 31 17 WSW 1012,0 26 0,0
18.07.2019 12:00:00 19,9 13,7 18 10 31 17 SW 1012,1 32 0,0
18.07.2019 11:00:00 20,5 13,6 21 11 34 18 SSW 1011,6 60 0,0
18.07.2019 10:00:00 19,4 13,8 13 7 22 12 SW 1011,5 60 0,0
18.07.2019 09:00:00 17,8 12,7 13 7 21 12 SSW 1011,7 29 0,0
18.07.2019 08:00:00 17,4 11,8 14 8 23 13 SW 1011,6 35 0,0
18.07.2019 07:00:00 16,9 13,6 13 7 29 16 WSW 1011,3 0 0,0
18.07.2019 06:00:00 17,4 14,0 10 5 15 8 SW 1011,4 0 0,0
18.07.2019 05:00:00 16,9 13,7 5 3 10 6 SE 1011,4 0 0,0
18.07.2019 04:00:00 16,8 13,4 4 2 11 6 SE 1011,9 0 0,0
18.07.2019 03:00:00 17,3 13,4 8 4 10 5 ESE 1012,1 0 0,0
18.07.2019 02:00:00 17,4 13,6 7 4 8 4 E 1012,6 0 0,0
18.07.2019 01:00:00 16,6 13,7 5 3 7 4 ESE 1012,6 0 0,0
18.07.2019 00:00:00 17,6 14,2 5 3 6 3 E 1012,8 0 0,0
17.07.2019 23:00:00 19,0 14,4 4 2 6 3 ENE 1013,2 0 0,0
17.07.2019 22:00:00 20,7 14,1 4 2 6 4 E 1013,2 0 0,0
17.07.2019 21:00:00 22,3 14,0 4 2 10 5 E 1013,3 0 0,0
17.07.2019 20:00:00 23,5 13,4 4 2 11 6 ENE 1013,4 0 0,0
17.07.2019 19:00:00 24,0 12,8 4 2 10 6 E 1013,7 34 0,0
17.07.2019 18:00:00 24,5 12,4 7 4 12 7 ESE 1014,0 51 0,0
17.07.2019 17:00:00 24,2 12,5 6 4 16 9 N 1014,7 49 0,0
17.07.2019 16:00:00 24,5 13,0 6 3 13 7 ESE 1015,1 49 0,0
17.07.2019 15:00:00 23,9 13,2 7 4 19 10 E 1015,3 60 0,0
17.07.2019 14:00:00 23,2 12,6 4 2 13 7 ESE 1015,8 60 0,0
17.07.2019 13:00:00 22,2 13,5 4 2 11 6 S 1016,3 60 0,0
17.07.2019 12:00:00 20,7 13,3 5 3 10 6 SE 1016,5 60 0,0
17.07.2019 11:00:00 19,8 13,6 4 2 10 5 SE 1016,8 60 0,0
17.07.2019 10:00:00 18,2 13,3 4 2 6 3 NE 1017,0 60 0,0
17.07.2019 09:00:00 15,6 13,8 4 2 6 3 SSE 1017,0 60 0,0
17.07.2019 08:00:00 12,8 12,6 0 0 3 2 N 1017,0 48 0,0
17.07.2019 07:00:00 8,4 8,4 4 2 5 3 E 1017,0 0 0,0
17.07.2019 06:00:00 7,6 7,6 0 0 3 2 N 1017,1 0 0,0
17.07.2019 05:00:00 8,3 8,3 0 0 3 2 N 1017,2 0 0,0
17.07.2019 04:00:00 9,2 9,2 0 0 3 2 N 1017,4 0 0,0
17.07.2019 03:00:00 10,0 10,0 0 0 2 1 N 1018,0 0 0,0
17.07.2019 02:00:00 10,0 9,9 0 0 6 4 N 1018,0 0 0,0
17.07.2019 01:00:00 12,0 11,3 4 2 5 3 N 1018,1 0 0,0
17.07.2019 00:00:00 14,8 13,2 5 3 8 4 N 1018,2 0 0,0
16.07.2019 23:00:00 16,2 13,4 5 3 7 4 NNW 1018,2 0 0,0
16.07.2019 22:00:00 17,4 13,0 4 2 7 4 NNW 1018,1 33 0,0
16.07.2019 21:00:00 17,9 13,0 4 2 11 6 NNW 1018,2 0 0,0
16.07.2019 20:00:00 19,0 12,6 11 6 14 7 WNW 1018,4 32 0,0
16.07.2019 19:00:00 19,4 11,9 4 2 13 7 NNW 1018,5 60 0,0
16.07.2019 18:00:00 20,2 12,3 7 4 18 10 NW 1018,8 55 0,0
16.07.2019 17:00:00 19,5 11,4 10 5 19 10 WNW 1019,3 31 0,0
16.07.2019 16:00:00 19,4 11,6 4 2 19 10 NW 1019,6 13 0,0
16.07.2019 15:00:00 18,9 11,2 7 4 17 9 W 1019,7 9 0,0
16.07.2019 14:00:00 18,0 11,5 11 6 29 15 W 1020,0 0 0,0
16.07.2019 13:00:00 17,5 10,9 9 5 18 10 WNW 1020,2 0 0,0
16.07.2019 12:00:00 16,9 10,7 11 6 17 9 WNW 1020,4 0 0,0
16.07.2019 11:00:00 16,1 11,0 6 4 16 9 NNW 1020,6 0 0,0
16.07.2019 10:00:00 15,7 10,5 7 4 14 8 WNW 1020,6 0 0,0
16.07.2019 09:00:00 15,2 11,1 9 5 16 9 NNW 1020,5 0 0,0
16.07.2019 08:00:00 14,9 11,5 4 2 8 4 N 1020,4 0 0,0
16.07.2019 07:00:00 14,7 11,5 5 3 6 4 NNW 1020,3 0 0,0
16.07.2019 06:00:00 14,6 11,5 0 0 7 4 N 1020,1 0 0,0
16.07.2019 05:00:00 14,7 11,5 4 2 7 4 N 1020,1 0 0,0
16.07.2019 04:00:00 14,7 11,8 4 2 8 5 N 1020,4 0 0,0
16.07.2019 03:00:00 14,8 11,5 5 3 10 6 N 1020,8 0 0,0
16.07.2019 02:00:00 15,0 12,1 7 4 13 7 NNW 1020,9 0 0,0
16.07.2019 01:00:00 15,1 12,8 8 4 11 6 NNW 1021,1 0 0,0
16.07.2019 00:00:00 15,2 12,7 7 4 11 6 NNW 1021,1 0 0,0
15.07.2019 23:00:00 15,1 12,6 6 3 10 6 NW 1021,1 0 0,0
15.07.2019 22:00:00 15,6 12,5 6 4 19 10 NNW 1021,1 0 0,0
15.07.2019 21:00:00 16,4 12,0 11 6 17 9 NNW 1021,0 0 0,0
15.07.2019 20:00:00 16,5 12,4 11 6 22 12 NW 1021,1 0 0,0
15.07.2019 19:00:00 16,8 12,8 12 7 23 12 NW 1021,3 0 0,0

tt = Température de l'air
td = dewpoint
ff = Vitesse du vent
fx = gusts
dd = Direction du vent
ppp = reduced air pressure
sd = Ensoleillement
rr = Quantités de précipitations

stations d'obs. à proximité